Time;durP1;ratioP1;P1;durP2;ratioP2;P2;SDS_P1;SDS_P2;PMS_P1;PMS_P2;Temp;Humidity;BMP_temperature;BMP_pressure;BME280_temperature;BME280_humidity;BME280_pressure;Samples;Min_cycle;Max_cycle;Signal;HPM_P1;HPM_P2
2022/04/22 00:00:08;;;;;;;9.27;6.47;;;10.90;99.90;;;;;;4964982;28;20046;-60
2022/04/22 00:02:34;;;;;;;14.00;6.25;;;10.70;99.90;;;;;;4997410;28;20035;-60
2022/04/22 00:05:00;;;;;;;12.23;6.30;;;;;;;;;;4964830;28;20100;-60
2022/04/22 00:07:28;;;;;;;10.02;5.90;;;;;;;;;;4981064;28;20496;-60
2022/04/22 00:09:57;;;;;;;10.32;5.70;;;10.60;99.90;;;;;;4997715;28;20125;-60
2022/04/22 00:12:22;;;;;;;11.60;6.60;;;10.60;99.90;;;;;;4980688;28;20122;-60
2022/04/22 00:14:48;;;;;;;11.65;6.05;;;;;;;;;;4997624;28;20479;-60
2022/04/22 00:17:14;;;;;;;13.65;6.10;;;10.60;99.90;;;;;;4997476;28;20047;-59
2022/04/22 00:19:40;;;;;;;10.57;6.85;;;10.50;99.90;;;;;;4980360;28;20062;-59
2022/04/22 00:22:05;;;;;;;15.52;6.50;;;10.50;99.90;;;;;;4998919;28;20077;-59
2022/04/22 00:24:31;;;;;;;13.02;6.07;;;10.50;99.90;;;;;;4964239;28;20511;-60
2022/04/22 00:26:56;;;;;;;14.38;6.38;;;10.50;99.90;;;;;;4979801;28;20408;-59
2022/04/22 00:29:22;;;;;;;15.65;6.95;;;;;;;;;;4980544;28;20042;-59
2022/04/22 00:31:48;;;;;;;11.00;6.53;;;;;;;;;;4997314;28;20448;-58
2022/04/22 00:34:14;;;;;;;15.55;6.70;;;10.30;99.90;;;;;;4997439;28;20137;-59
2022/04/22 00:36:40;;;;;;;15.65;6.88;;;10.30;99.90;;;;;;4978489;28;20509;-59
2022/04/22 00:39:05;;;;;;;11.15;6.30;;;10.30;99.90;;;;;;4977971;28;20049;-60
2022/04/22 00:41:32;;;;;;;11.98;6.97;;;10.30;99.90;;;;;;4977667;28;20035;-59
2022/04/22 00:43:57;;;;;;;11.27;6.75;;;10.50;99.90;;;;;;4959690;28;20043;-58
2022/04/22 00:46:23;;;;;;;14.55;6.82;;;10.20;99.90;;;;;;4993919;28;20053;-60
2022/04/22 00:48:48;;;;;;;9.43;6.47;;;10.30;99.90;;;;;;4979090;28;20038;-59
2022/04/22 00:51:14;;;;;;;11.07;7.03;;;10.00;99.90;;;;;;4996734;28;20097;-60
2022/04/22 00:53:42;;;;;;;12.38;6.75;;;10.10;99.90;;;;;;4979501;28;20117;-59
2022/04/22 00:56:10;;;;;;;12.60;6.72;;;9.80;99.90;;;;;;4979204;28;20057;-58
2022/04/22 00:58:39;;;;;;;13.68;7.20;;;10.00;99.90;;;;;;4996867;28;20045;-59
2022/04/22 01:01:05;;;;;;;14.10;7.57;;;9.80;99.90;;;;;;4979282;28;20516;-60
2022/04/22 01:03:31;;;;;;;17.73;7.15;;;10.10;99.90;;;;;;4997056;28;20042;-58
2022/04/22 01:11:35;;;;;;;10.68;7.30;;;;;;;;;;4996491;28;20046;-59
2022/04/22 01:14:01;;;;;;;12.02;7.15;;;9.50;99.90;;;;;;4978729;28;20134;-59
2022/04/22 01:16:28;;;;;;;13.68;7.90;;;9.50;99.90;;;;;;4996054;28;20116;-59
2022/04/22 01:18:55;;;;;;;15.07;8.43;;;9.50;99.90;;;;;;4979433;28;20046;-59
2022/04/22 01:21:21;;;;;;;12.75;7.43;;;9.60;99.90;;;;;;4996284;28;20454;-61
2022/04/22 01:23:46;;;;;;;14.18;8.30;;;;;;;;;;4996250;28;20035;-59
2022/04/22 01:26:13;;;;;;;13.45;7.72;;;9.60;99.90;;;;;;4979292;28;20042;-59
2022/04/22 01:28:39;;;;;;;13.30;8.43;;;9.50;99.90;;;;;;4997326;28;20049;-59
2022/04/22 01:31:05;;;;;;;14.07;8.60;;;9.50;99.90;;;;;;4978959;28;20054;-59
2022/04/22 01:33:31;;;;;;;13.70;7.60;;;;;;;;;;4978042;28;20496;-59
2022/04/22 01:35:57;;;;;;;16.42;8.40;;;9.40;99.90;;;;;;4962957;28;20125;-60
2022/04/22 01:38:22;;;;;;;18.98;8.68;;;9.50;99.90;;;;;;4996733;28;20097;-60
2022/04/22 01:40:48;;;;;;;14.23;8.70;;;;;;;;;;4962277;28;20038;-59
2022/04/22 01:43:14;;;;;;;16.35;8.20;;;9.40;99.90;;;;;;4978649;28;20038;-58
2022/04/22 01:45:40;;;;;;;15.18;8.55;;;9.40;99.90;;;;;;4978751;28;20489;-59
2022/04/22 01:48:06;;;;;;;11.57;7.57;;;;;;;;;;4980681;28;20039;-59
2022/04/22 01:50:32;;;;;;;11.88;7.72;;;;;;;;;;4976300;28;20043;-60
2022/04/22 01:52:59;;;;;;;16.45;7.95;;;9.00;99.90;;;;;;4975971;28;20047;-60
2022/04/22 01:55:26;;;;;;;17.08;8.45;;;9.30;99.90;;;;;;4959635;28;20224;-59
2022/04/22 01:57:53;;;;;;;15.02;8.93;;;9.30;99.90;;;;;;4976095;28;20046;-59
2022/04/22 02:00:18;;;;;;;16.50;8.65;;;9.20;99.90;;;;;;4959120;28;20047;-59
2022/04/22 02:02:44;;;;;;;16.17;8.80;;;9.20;99.90;;;;;;4959312;28;20170;-58
2022/04/22 02:05:09;;;;;;;16.55;9.55;;;9.10;99.90;;;;;;4976020;28;20042;-59
2022/04/22 02:07:35;;;;;;;14.20;8.70;;;;;;;;;;4958246;28;20039;-59
2022/04/22 02:10:01;;;;;;;16.73;8.55;;;;;;;;;;4959097;28;20042;-59
2022/04/22 02:12:27;;;;;;;14.38;8.32;;;8.90;99.90;;;;;;4975717;28;20070;-58
2022/04/22 02:14:53;;;;;;;16.92;8.80;;;8.90;99.90;;;;;;4957762;28;20055;-59
2022/04/22 02:17:18;;;;;;;15.32;8.45;;;8.90;99.90;;;;;;4975379;28;20089;-59
2022/04/22 02:19:44;;;;;;;15.77;8.88;;;8.80;99.90;;;;;;4959220;28;20045;-61
2022/04/22 02:22:10;;;;;;;14.80;9.05;;;;;;;;;;4958848;28;20130;-60
2022/04/22 02:24:36;;;;;;;16.55;8.88;;;8.80;99.90;;;;;;4975345;28;20485;-60
2022/04/22 02:29:46;;;;;;;19.27;8.80;;;8.70;99.90;;;;;;4976293;28;20058;-60
2022/04/22 02:32:11;;;;;;;20.58;9.60;;;;;;;;;;4958556;28;20102;-60
2022/04/22 02:34:37;;;;;;;18.65;9.38;;;8.70;99.90;;;;;;4958370;28;20130;-60
2022/04/22 02:37:03;;;;;;;15.25;8.93;;;8.70;99.90;;;;;;4976728;28;20042;-60
2022/04/22 02:39:28;;;;;;;16.98;9.48;;;8.70;99.90;;;;;;4976365;28;20081;-61
2022/04/22 02:47:23;;;;;;;15.15;9.65;;;8.90;99.90;;;;;;4995478;28;20092;-60
2022/04/22 02:49:49;;;;;;;19.00;8.32;;;8.60;99.90;;;;;;4996055;28;20085;-60
2022/04/22 02:52:15;;;;;;;16.42;8.60;;;8.70;99.90;;;;;;4978148;28;20459;-60
2022/04/22 02:54:41;;;;;;;18.80;8.77;;;8.60;99.90;;;;;;4978772;28;20053;-60
2022/04/22 02:57:07;;;;;;;18.05;9.02;;;8.70;99.90;;;;;;4995661;28;20385;-60
2022/04/22 02:59:35;;;;;;;16.92;8.50;;;8.60;99.90;;;;;;4978289;28;20054;-60
2022/04/22 03:02:01;;;;;;;16.48;8.02;;;8.60;99.90;;;;;;4977790;28;20125;-61
2022/04/22 03:04:26;;;;;;;15.20;7.80;;;8.70;99.90;;;;;;4978246;28;20070;-60
2022/04/22 03:06:55;;;;;;;13.15;7.80;;;8.90;99.90;;;;;;4977710;28;20115;-59
2022/04/22 03:09:21;;;;;;;17.08;8.02;;;8.60;99.90;;;;;;4995765;28;20049;-64
2022/04/22 03:11:46;;;;;;;14.07;8.52;;;8.70;99.90;;;;;;4995408;28;20034;-60
2022/04/22 03:14:13;;;;;;;16.00;7.80;;;;;;;;;;4978277;28;20126;-60
2022/04/22 03:16:40;;;;;;;12.52;7.50;;;8.80;99.90;;;;;;4961873;28;20070;-60
2022/04/22 03:19:06;;;;;;;13.05;7.10;;;;;;;;;;4961468;28;20034;-60
2022/04/22 03:21:33;;;;;;;13.85;7.13;;;;;;;;;;4977864;28;20504;-60
2022/04/22 03:23:58;;;;;;;13.20;8.10;;;8.50;99.90;;;;;;4977375;28;20042;-60
2022/04/22 03:26:24;;;;;;;16.23;6.60;;;;;;;;;;4994937;28;20424;-59
2022/04/22 03:28:50;;;;;;;12.80;7.75;;;8.50;99.90;;;;;;4977850;28;20493;-60
2022/04/22 03:31:16;;;;;;;10.32;7.00;;;;;;;;;;4977781;28;20042;-59
2022/04/22 03:33:42;;;;;;;12.40;6.78;;;8.50;99.90;;;;;;4977635;28;20094;-60
2022/04/22 03:36:08;;;;;;;11.77;6.85;;;;;;;;;;4977940;28;20133;-60
2022/04/22 03:38:33;;;;;;;11.60;7.20;;;8.40;99.90;;;;;;4995296;28;20484;-60
2022/04/22 03:40:59;;;;;;;11.95;6.05;;;;;;;;;;4977546;28;20030;-59
2022/04/22 03:43:25;;;;;;;14.40;6.63;;;8.50;99.90;;;;;;4978240;28;20042;-60
2022/04/22 03:45:51;;;;;;;11.70;5.82;;;;;;;;;;4998202;28;20435;-60
2022/04/22 03:48:17;;;;;;;11.00;5.93;;;8.40;99.90;;;;;;4981233;28;20081;-60
2022/04/22 03:50:43;;;;;;;10.63;5.20;;;8.50;99.90;;;;;;4998284;28;20042;-60
2022/04/22 03:53:12;;;;;;;10.05;5.60;;;8.40;99.90;;;;;;4964927;28;20049;-59
2022/04/22 03:55:42;;;;;;;9.60;5.63;;;8.40;99.90;;;;;;4964722;28;20169;-60
2022/04/22 03:58:11;;;;;;;11.32;5.60;;;8.30;99.90;;;;;;4980490;28;20078;-60
2022/04/22 04:00:41;;;;;;;9.88;6.25;;;8.40;99.90;;;;;;4981187;28;20053;-59
2022/04/22 04:03:11;;;;;;;8.88;6.15;;;8.30;99.90;;;;;;4964837;28;20077;-59
2022/04/22 04:05:38;;;;;;;13.15;6.47;;;8.30;99.90;;;;;;4980967;28;20509;-60
2022/04/22 04:08:05;;;;;;;9.15;5.72;;;8.30;99.90;;;;;;4998387;28;20065;-60
2022/04/22 04:15:59;;;;;;;10.73;5.82;;;8.10;99.90;;;;;;4998391;28;20066;-60
2022/04/22 04:18:26;;;;;;;12.48;6.18;;;;;;;;;;4998143;28;20559;-60
2022/04/22 04:23:36;;;;;;;9.70;6.38;;;8.20;99.90;;;;;;4979942;28;20054;-60
2022/04/22 04:26:01;;;;;;;9.88;5.88;;;8.20;99.90;;;;;;4998015;28;20065;-60
2022/04/22 04:28:27;;;;;;;9.52;5.70;;;8.30;99.90;;;;;;4980901;28;20081;-60
2022/04/22 04:30:54;;;;;;;8.05;4.93;;;8.30;99.90;;;;;;4969771;28;20081;-60
2022/04/22 04:33:20;;;;;;;9.43;5.32;;;8.30;99.90;;;;;;4960380;28;20060;-60
2022/04/22 04:35:47;;;;;;;11.23;5.45;;;8.20;99.90;;;;;;4961302;28;20050;-60
2022/04/22 04:38:13;;;;;;;8.25;5.40;;;8.10;99.90;;;;;;4978588;28;20490;-59
2022/04/22 04:40:39;;;;;;;8.82;5.32;;;;;;;;;;4961257;28;20509;-59
2022/04/22 04:43:06;;;;;;;11.63;5.90;;;;;;;;;;4961451;28;20066;-60
2022/04/22 04:45:32;;;;;;;7.03;4.78;;;;;;;;;;4969002;28;20054;-60
2022/04/22 04:47:58;;;;;;;9.90;5.13;;;;;;;;;;4978292;28;20043;-60
2022/04/22 04:50:24;;;;;;;7.85;5.43;;;8.20;99.90;;;;;;4995340;28;20515;-60
2022/04/22 04:52:50;;;;;;;9.07;5.28;;;8.20;99.90;;;;;;4979702;28;20069;-59
2022/04/22 04:55:16;;;;;;;11.73;5.85;;;;;;;;;;4995225;28;20416;-59
2022/04/22 04:57:45;;;;;;;7.07;4.90;;;8.10;99.90;;;;;;4997559;28;20069;-60
2022/04/22 05:00:12;;;;;;;11.93;5.97;;;8.20;99.90;;;;;;4997359;28;20049;-59
2022/04/22 05:02:38;;;;;;;7.88;5.10;;;8.10;99.90;;;;;;4996153;28;20076;-60
2022/04/22 05:05:05;;;;;;;10.77;5.05;;;8.10;99.90;;;;;;4993807;28;20473;-60
2022/04/22 05:07:31;;;;;;;8.13;5.13;;;8.10;99.90;;;;;;4976056;28;20516;-60
2022/04/22 05:09:57;;;;;;;8.40;5.15;;;8.10;99.90;;;;;;4975936;28;20043;-60
2022/04/22 05:12:23;;;;;;;10.80;5.00;;;;;;;;;;4986411;28;20039;-60
2022/04/22 05:14:48;;;;;;;11.85;4.55;;;8.20;99.90;;;;;;4961187;28;20055;-60
2022/04/22 05:17:14;;;;;;;6.93;4.68;;;8.20;99.90;;;;;;4974934;28;20051;-59
2022/04/22 05:19:40;;;;;;;6.78;5.10;;;8.30;99.90;;;;;;4975320;28;20489;-59
2022/04/22 05:22:06;;;;;;;10.70;5.10;;;8.30;99.90;;;;;;4987308;28;20403;-59
2022/04/22 05:24:32;;;;;;;9.27;4.75;;;8.30;99.90;;;;;;4974237;28;20034;-59
2022/04/22 05:26:59;;;;;;;8.13;5.28;;;8.50;99.90;;;;;;4994635;28;20078;-59
2022/04/22 05:34:54;;;;;;;9.40;5.03;;;8.40;99.90;;;;;;4974089;28;20125;-59
2022/04/22 05:37:20;;;;;;;8.40;4.85;;;;;;;;;;4976711;28;20043;-59
2022/04/22 05:39:46;;;;;;;9.23;4.57;;;8.30;99.90;;;;;;4974422;28;20119;-59
2022/04/22 05:42:12;;;;;;;8.95;4.78;;;8.40;99.90;;;;;;4974823;28;20067;-60
2022/04/22 05:44:38;;;;;;;10.27;4.63;;;;;;;;;;4976088;28;20074;-60
2022/04/22 05:47:05;;;;;;;8.13;4.63;;;8.60;99.90;;;;;;4994126;28;20038;-60
2022/04/22 05:49:30;;;;;;;7.40;4.57;;;8.60;99.90;;;;;;4994276;28;20476;-60
2022/04/22 05:51:56;;;;;;;7.47;4.68;;;8.80;99.90;;;;;;4991240;28;20039;-60
2022/04/22 05:54:22;;;;;;;5.63;4.43;;;8.80;99.90;;;;;;4974442;28;20042;-59
2022/04/22 05:56:48;;;;;;;6.15;4.07;;;;;;;;;;4974117;28;20046;-60
2022/04/22 05:59:13;;;;;;;6.95;4.35;;;9.10;99.90;;;;;;4956989;28;20417;-60
2022/04/22 06:01:39;;;;;;;6.32;4.03;;;9.20;99.90;;;;;;4974693;28;20065;-59
2022/04/22 06:04:04;;;;;;;7.57;4.30;;;9.40;99.90;;;;;;4974228;28;20556;-60
2022/04/22 06:06:30;;;;;;;7.13;4.20;;;;;;;;;;4986101;28;20050;-60
2022/04/22 06:11:40;;;;;;;9.65;5.05;;;10.20;99.90;;;;;;4955885;28;20062;-59
2022/04/22 06:14:05;;;;;;;10.00;4.18;;;10.20;99.90;;;;;;4972814;28;20054;-60
2022/04/22 06:16:31;;;;;;;4.72;3.97;;;10.40;99.90;;;;;;4980417;28;20038;-61
2022/04/22 06:18:57;;;;;;;9.05;4.03;;;10.60;99.90;;;;;;4975253;28;20046;-60
2022/04/22 06:21:22;;;;;;;5.40;4.05;;;11.00;99.90;;;;;;4977869;28;20086;-60
2022/04/22 06:23:48;;;;;;;9.20;4.32;;;;;;;;;;4989172;28;20492;-60
2022/04/22 06:26:14;;;;;;;7.32;4.32;;;;;;;;;;4952847;28;20047;-60
2022/04/22 06:28:40;;;;;;;6.00;3.92;;;;;;;;;;4972834;28;20041;-60
2022/04/22 06:31:06;;;;;;;5.97;3.95;;;;;;;;;;4973614;28;20062;-61
2022/04/22 06:33:32;;;;;;;7.10;4.43;;;;;;;;;;4965467;28;20042;-60
2022/04/22 06:36:03;;;;;;;7.68;4.45;;;11.40;99.90;;;;;;4957948;28;20042;-60
2022/04/22 06:38:29;;;;;;;6.40;4.03;;;11.90;99.90;;;;;;4964144;28;20661;-60
2022/04/22 06:46:29;;;;;;;6.30;4.35;;;;;;;;;;4932924;28;20145;-61
2022/04/22 06:48:55;;;;;;;5.18;4.15;;;;;;;;;;4971447;28;20049;-61
2022/04/22 06:51:23;;;;;;;11.68;4.57;;;;;;;;;;4970075;28;20504;-61
2022/04/22 06:53:52;;;;;;;10.85;4.22;;;;;;;;;;4961602;28;20142;-61
2022/04/22 06:56:23;;;;;;;7.53;4.05;;;12.40;99.90;;;;;;4966278;28;20134;-61
2022/04/22 06:58:49;;;;;;;6.97;3.78;;;;;;;;;;4963741;28;20540;-61
2022/04/22 07:01:15;;;;;;;8.48;4.45;;;12.40;99.90;;;;;;4969564;28;20046;-61
2022/04/22 07:03:41;;;;;;;8.80;4.03;;;;;;;;;;4970499;28;20540;-61
2022/04/22 07:06:07;;;;;;;5.45;3.35;;;12.40;99.90;;;;;;4968254;28;20050;-61
2022/04/22 07:08:32;;;;;;;7.05;3.70;;;12.50;99.90;;;;;;4969139;28;20543;-61
2022/04/22 07:11:01;;;;;;;8.05;3.97;;;12.60;99.90;;;;;;4959097;28;20146;-61
2022/04/22 07:13:27;;;;;;;5.55;3.78;;;12.10;99.90;;;;;;4946316;28;20058;-60
2022/04/22 07:15:54;;;;;;;6.45;3.72;;;12.20;99.90;;;;;;4982951;28;20050;-60
2022/04/22 07:18:20;;;;;;;9.88;3.42;;;;;;;;;;4983703;28;20046;-60
2022/04/22 07:20:45;;;;;;;5.53;3.33;;;12.30;99.90;;;;;;4969345;28;20169;-61
2022/04/22 07:23:14;;;;;;;5.38;3.20;;;12.20;99.90;;;;;;4970451;28;20064;-60
2022/04/22 07:25:44;;;;;;;8.35;3.58;;;;;;;;;;4969565;28;20054;-61
2022/04/22 07:28:11;;;;;;;6.20;3.55;;;11.90;99.90;;;;;;4986499;28;20096;-61
2022/04/22 07:30:39;;;;;;;4.78;2.80;;;12.10;99.90;;;;;;4987413;28;20141;-62
2022/04/22 07:33:06;;;;;;;4.63;3.30;;;12.20;99.90;;;;;;4982532;28;20113;-61
2022/04/22 07:35:32;;;;;;;5.07;3.45;;;;;;;;;;4967088;28;20129;-60
2022/04/22 07:37:59;;;;;;;5.10;3.20;;;;;;;;;;4986074;28;20407;-61
2022/04/22 07:40:25;;;;;;;6.38;2.92;;;12.50;99.90;;;;;;4967032;28;20128;-61
2022/04/22 07:48:22;;;;;;;5.63;3.00;;;12.40;99.90;;;;;;4984648;28;20107;-60
2022/04/22 07:50:48;;;;;;;7.15;3.08;;;12.30;99.90;;;;;;4984892;28;20049;-60
2022/04/22 07:53:18;;;;;;;4.95;3.08;;;12.40;99.90;;;;;;4969569;28;20060;-60
2022/04/22 07:55:44;;;;;;;7.93;2.85;;;;;;;;;;4968502;28;20456;-60
2022/04/22 07:58:10;;;;;;;4.47;2.72;;;;;;;;;;4983174;28;20049;-61
2022/04/22 08:00:44;;;;;;;4.63;2.60;;;12.20;99.90;;;;;;4987987;28;20516;-60
2022/04/22 08:03:11;;;;;;;3.45;2.58;;;12.50;99.90;;;;;;4968766;28;20505;-60
2022/04/22 08:05:40;;;;;;;6.35;2.97;;;;;;;;;;4985422;28;20427;-60
2022/04/22 08:08:06;;;;;;;4.47;2.63;;;12.50;99.90;;;;;;4987018;28;20093;-60
2022/04/22 08:10:35;;;;;;;6.38;3.20;;;12.80;99.90;;;;;;4983382;28;20042;-60
2022/04/22 08:13:01;;;;;;;4.55;2.40;;;;;;;;;;4991977;28;20667;-60
2022/04/22 08:15:27;;;;;;;3.85;2.58;;;12.80;99.90;;;;;;4973284;28;20405;-60
2022/04/22 08:17:52;;;;;;;3.78;2.72;;;12.90;99.90;;;;;;4966288;28;20490;-60
2022/04/22 08:20:18;;;;;;;4.28;2.63;;;;;;;;;;4969085;28;20104;-60
2022/04/22 08:22:45;;;;;;;4.40;2.58;;;;;;;;;;4974879;28;20061;-60
2022/04/22 08:25:14;;;;;;;3.53;2.88;;;12.60;99.90;;;;;;4955695;28;20129;-60
2022/04/22 08:27:40;;;;;;;4.32;2.47;;;12.50;99.90;;;;;;4957807;28;20053;-61
2022/04/22 08:30:08;;;;;;;3.03;2.22;;;12.90;99.90;;;;;;4955910;28;20055;-60
2022/04/22 08:32:34;;;;;;;4.95;2.30;;;;;;;;;;4973448;28;20104;-60
2022/04/22 08:35:00;;;;;;;3.85;3.28;;;;;;;;;;4969645;28;20066;-60
2022/04/22 08:37:26;;;;;;;3.83;2.72;;;;;;;;;;4960159;28;20089;-64
2022/04/22 08:39:54;;;;;;;4.38;2.22;;;;;;;;;;4970840;28;20493;-62
2022/04/22 08:42:23;;;;;;;6.55;3.10;;;;;;;;;;4975306;28;20576;-63
2022/04/22 08:44:50;;;;;;;6.20;2.42;;;13.20;99.90;;;;;;4969884;28;20058;-63
2022/04/22 08:50:06;;;;;;;3.70;2.38;;;;;;;;;;4966959;28;20057;-64
2022/04/22 08:52:34;;;;;;;5.80;2.70;;;13.30;99.90;;;;;;4965588;28;20058;-62
2022/04/22 08:55:02;;;;;;;4.53;2.92;;;13.30;99.90;;;;;;4970149;28;20046;-63
2022/04/22 08:57:28;;;;;;;2.30;2.10;;;;;;;;;;4957345;28;20054;-62
2022/04/22 08:59:59;;;;;;;4.05;2.30;;;13.50;99.90;;;;;;4969418;28;20054;-62
2022/04/22 09:02:26;;;;;;;6.93;2.35;;;;;;;;;;4965849;28;20110;-63
2022/04/22 09:04:52;;;;;;;3.10;2.45;;;;;;;;;;4961404;28;20050;-63
2022/04/22 09:07:19;;;;;;;7.53;3.15;;;14.00;99.90;;;;;;4967067;28;20501;-62
2022/04/22 09:09:52;;;;;;;4.78;2.20;;;;;;;;;;4957337;28;20118;-63
2022/04/22 09:12:23;;;;;;;2.67;1.80;;;14.00;99.90;;;;;;4972373;28;20090;-62
2022/04/22 09:14:51;;;;;;;4.05;2.45;;;14.10;99.90;;;;;;4977056;28;20081;-61
2022/04/22 09:17:28;;;;;;;8.15;2.28;;;14.10;99.90;;;;;;4983853;28;20634;-61
2022/04/22 09:19:57;;;;;;;3.55;2.63;;;14.40;99.90;;;;;;4965830;28;20065;-61
2022/04/22 09:22:24;;;;;;;5.32;2.70;;;14.50;99.90;;;;;;4965550;28;20061;-61
2022/04/22 09:24:50;;;;;;;3.88;2.38;;;;;;;;;;4948193;28;20113;-61
2022/04/22 09:27:16;;;;;;;3.45;2.78;;;14.60;99.90;;;;;;4966169;28;20042;-61
2022/04/22 09:29:54;;;;;;;7.18;2.67;;;14.70;99.90;;;;;;4965954;28;20081;-62
2022/04/22 09:32:27;;;;;;;9.25;2.92;;;14.80;99.90;;;;;;4978122;28;20052;-61
2022/04/22 09:34:56;;;;;;;9.13;2.60;;;14.90;99.90;;;;;;4967904;28;20053;-62
2022/04/22 09:43:18;;;;;;;9.60;2.15;;;15.20;99.90;;;;;;4928531;29;20191;-61
2022/04/22 09:45:45;;;;;;;9.65;2.35;;;15.50;99.90;;;;;;4922108;29;20652;-61
2022/04/22 09:48:17;;;;;;;4.15;2.20;;;15.50;99.90;;;;;;4936902;28;20062;-62
2022/04/22 09:50:45;;;;;;;3.17;2.00;;;15.40;99.90;;;;;;4983330;28;20057;-62
2022/04/22 09:53:12;;;;;;;5.35;2.53;;;15.70;99.90;;;;;;4986121;28;20066;-61
2022/04/22 09:55:49;;;;;;;3.60;2.00;;;15.80;99.90;;;;;;4980707;28;20973;-64
2022/04/22 09:58:25;;;;;;;4.25;2.30;;;16.00;99.90;;;;;;4981477;28;20492;-63
2022/04/22 10:00:57;;;;;;;4.53;2.00;;;15.90;99.90;;;;;;4981846;28;20074;-63
2022/04/22 10:03:25;;;;;;;7.03;2.10;;;14.90;99.90;;;;;;4981011;28;20137;-64
2022/04/22 10:05:52;;;;;;;5.20;2.42;;;15.70;99.90;;;;;;4966373;28;20057;-63
2022/04/22 10:08:20;;;;;;;3.42;2.08;;;15.80;99.90;;;;;;4963696;28;20054;-62
2022/04/22 10:10:47;;;;;;;6.78;1.85;;;16.00;99.90;;;;;;4981433;28;20046;-63
2022/04/22 10:13:17;;;;;;;4.32;1.90;;;16.10;99.90;;;;;;4984023;28;20076;-63
2022/04/22 10:15:45;;;;;;;2.30;1.63;;;16.20;99.90;;;;;;4974099;28;20165;-62
2022/04/22 10:18:13;;;;;;;5.03;1.98;;;16.20;99.90;;;;;;4979571;28;20054;-62
2022/04/22 10:20:40;;;;;;;3.70;2.17;;;16.10;99.90;;;;;;4967319;28;20056;-62
2022/04/22 10:23:06;;;;;;;3.80;2.00;;;;;;;;;;4979716;28;20057;-62
2022/04/22 10:25:33;;;;;;;5.03;2.10;;;16.20;99.90;;;;;;4976052;28;20058;-63
2022/04/22 10:28:03;;;;;;;5.57;2.03;;;16.10;99.90;;;;;;4982333;28;20057;-62
2022/04/22 10:30:29;;;;;;;9.30;2.53;;;16.20;99.90;;;;;;4974032;28;20091;-62
2022/04/22 10:32:56;;;;;;;3.25;1.77;;;16.20;99.90;;;;;;4980796;28;20413;-62
2022/04/22 10:35:23;;;;;;;4.85;2.47;;;16.20;99.90;;;;;;4974591;28;20051;-62
2022/04/22 10:37:50;;;;;;;6.70;2.03;;;16.20;99.90;;;;;;4970378;28;20134;-63
2022/04/22 10:40:23;;;;;;;11.10;2.38;;;16.20;99.90;;;;;;4962959;28;20061;-63
2022/04/22 10:42:50;;;;;;;6.22;2.58;;;16.30;99.90;;;;;;4975509;28;20260;-63
2022/04/22 10:48:21;;;;;;;8.20;2.30;;;16.30;99.90;;;;;;4982207;28;20689;-63
2022/04/22 10:50:58;;;;;;;6.30;2.65;;;16.40;99.90;;;;;;4965302;28;20534;-63
2022/04/22 10:53:26;;;;;;;3.22;2.20;;;16.40;99.90;;;;;;4965800;28;20046;-63
2022/04/22 10:55:52;;;;;;;4.90;2.30;;;16.40;99.90;;;;;;4982504;28;20073;-63
2022/04/22 10:58:19;;;;;;;5.68;2.95;;;16.30;99.90;;;;;;4970261;28;20478;-62
2022/04/22 11:00:50;;;;;;;5.07;2.47;;;16.40;99.90;;;;;;4983050;28;20051;-62
2022/04/22 11:03:18;;;;;;;6.00;3.45;;;16.40;99.90;;;;;;4970617;28;20467;-62
2022/04/22 11:05:50;;;;;;;4.88;2.60;;;16.50;99.90;;;;;;4985596;28;20061;-62
2022/04/22 11:08:30;;;;;;;5.10;2.65;;;16.40;99.90;;;;;;4982018;28;20944;-63
2022/04/22 11:10:55;;;;;;;5.57;2.97;;;16.50;99.90;;;;;;4989290;28;20677;-63
2022/04/22 11:13:35;;;;;;;9.15;2.47;;;16.50;99.90;;;;;;4981728;28;20042;-63
2022/04/22 11:16:19;;;;;;;4.68;2.40;;;16.50;99.90;;;;;;4968087;28;20133;-63
2022/04/22 11:19:09;;;;;;;7.40;2.50;;;16.50;99.90;;;;;;4967900;28;20054;-63
2022/04/22 11:21:38;;;;;;;4.53;2.80;;;16.70;99.90;;;;;;4980789;28;20100;-64
2022/04/22 11:24:14;;;;;;;5.95;3.30;;;16.70;99.90;;;;;;4976664;28;20050;-63
2022/04/22 11:26:40;;;;;;;6.63;3.45;;;16.70;99.90;;;;;;4976433;28;20045;-63
2022/04/22 11:29:08;;;;;;;8.63;3.38;;;16.60;99.90;;;;;;4982146;28;20054;-63
2022/04/22 11:31:35;;;;;;;10.75;3.42;;;16.60;99.90;;;;;;4979105;28;20427;-63
2022/04/22 11:34:10;;;;;;;5.28;2.90;;;16.60;99.90;;;;;;4976370;28;20404;-63
2022/04/22 11:36:42;;;;;;;;;;;17.00;99.90;;;;;;4979096;28;20160;-63
2022/04/22 11:39:15;;;;;;;5.68;2.70;;;16.70;99.90;;;;;;4980964;28;20600;-63
2022/04/22 11:41:51;;;;;;;6.97;3.25;;;16.80;99.90;;;;;;4967232;28;20136;-64
2022/04/22 11:44:21;;;;;;;7.47;3.05;;;16.90;99.90;;;;;;4980322;28;20046;-63
2022/04/22 11:46:47;;;;;;;6.78;3.28;;;16.90;99.90;;;;;;4963722;28;20046;-63
2022/04/22 11:49:13;;;;;;;7.70;3.28;;;16.90;99.90;;;;;;4978661;28;20055;-64
2022/04/22 11:51:39;;;;;;;5.88;2.92;;;17.00;99.90;;;;;;4965576;28;20049;-64
2022/04/22 11:54:05;;;;;;;4.93;2.97;;;17.10;99.90;;;;;;4977394;28;20049;-63
2022/04/22 11:56:30;;;;;;;3.72;2.70;;;17.10;99.90;;;;;;4977883;28;20118;-63
2022/04/22 11:58:57;;;;;;;7.63;3.65;;;17.10;99.90;;;;;;4983056;28;20538;-63
2022/04/22 12:08:00;;;;;;;8.20;3.33;;;17.10;99.90;;;;;;4974320;28;20043;-64
2022/04/22 12:09:50;;;;;;;6.00;3.42;;;17.10;99.90;;;;;;4966006;28;20098;-64
2022/04/22 12:12:17;;;;;;;4.70;2.95;;;16.90;99.90;;;;;;4977704;28;20056;-64
2022/04/22 12:14:42;;;;;;;6.85;3.85;;;16.80;99.90;;;;;;4975467;28;20055;-64
2022/04/22 12:17:08;;;;;;;7.30;3.00;;;16.60;99.90;;;;;;4973719;28;20503;-64
2022/04/22 12:19:33;;;;;;;5.15;3.08;;;16.90;99.90;;;;;;4974175;28;20034;-64
2022/04/22 12:21:59;;;;;;;7.15;3.40;;;16.60;99.90;;;;;;4974681;28;20049;-64
2022/04/22 12:24:25;;;;;;;6.85;2.90;;;17.00;99.90;;;;;;4980084;28;20452;-64
2022/04/22 12:26:54;;;;;;;4.72;3.30;;;17.00;99.90;;;;;;4959149;28;20113;-63
2022/04/22 12:29:23;;;;;;;4.78;3.53;;;16.90;99.90;;;;;;5003087;28;20042;-63
2022/04/22 12:31:53;;;;;;;6.93;3.42;;;17.00;99.90;;;;;;5013805;28;20052;-64
2022/04/22 12:34:45;;;;;;;5.85;3.22;;;17.30;99.90;;;;;;4993038;28;20066;-63
2022/04/22 12:37:15;;;;;;;5.30;2.80;;;17.30;99.90;;;;;;4999897;28;20058;-64
2022/04/22 12:39:43;;;;;;;5.65;3.28;;;17.20;99.90;;;;;;4996409;28;20495;-63
2022/04/22 12:42:17;;;;;;;8.52;3.53;;;17.30;99.90;;;;;;5013675;28;20414;-63
2022/04/22 12:52:08;;;;;;;6.22;3.40;;;17.60;99.90;;;;;;4978341;28;20105;-63
2022/04/22 12:53:29;;;;;;;7.47;3.50;;;17.80;99.90;;;;;;4975504;28;20456;-63
2022/04/22 12:56:08;;;;;;;5.47;3.22;;;17.30;99.90;;;;;;4993377;28;20135;-63
2022/04/22 12:58:55;;;;;;;5.35;3.50;;;17.50;99.90;;;;;;4990208;28;20145;-63
2022/04/22 13:01:39;;;;;;;8.38;3.30;;;17.00;99.90;;;;;;4966582;28;20045;-63
2022/04/22 13:04:06;;;;;;;5.68;4.03;;;16.80;99.90;;;;;;4975340;28;20428;-63
2022/04/22 13:06:40;;;;;;;6.57;3.50;;;16.90;99.90;;;;;;4977256;28;20042;-64
2022/04/22 13:09:07;;;;;;;5.60;3.70;;;17.10;99.90;;;;;;4982558;28;20070;-64
2022/04/22 13:11:36;;;;;;;6.93;3.92;;;17.20;99.90;;;;;;4975711;28;20492;-63
2022/04/22 13:14:03;;;;;;;6.28;3.78;;;17.40;99.90;;;;;;5000802;28;20428;-64
2022/04/22 13:16:29;;;;;;;6.10;3.70;;;17.30;99.90;;;;;;5012464;28;20050;-64
2022/04/22 13:18:56;;;;;;;11.25;4.07;;;17.30;99.90;;;;;;4995797;28;20100;-64
2022/04/22 13:21:22;;;;;;;11.55;4.13;;;17.60;99.90;;;;;;4995196;28;20041;-64
2022/04/22 13:23:47;;;;;;;8.32;4.20;;;17.50;99.90;;;;;;5002163;28;20476;-64
2022/04/22 13:26:13;;;;;;;6.57;4.43;;;17.60;99.90;;;;;;4995325;28;20084;-64
2022/04/22 13:28:38;;;;;;;6.53;4.10;;;17.70;99.90;;;;;;4986759;28;20395;-63
2022/04/22 13:31:04;;;;;;;6.25;3.65;;;17.50;99.90;;;;;;4995565;28;20388;-63
2022/04/22 13:33:32;;;;;;;8.98;4.25;;;17.40;99.90;;;;;;4999163;28;20045;-64
2022/04/22 13:36:02;;;;;;;9.38;4.35;;;17.50;99.90;;;;;;4995323;28;20045;-63
2022/04/22 13:38:32;;;;;;;9.13;3.85;;;17.50;99.90;;;;;;5007319;28;20438;-64
2022/04/22 13:41:01;;;;;;;7.15;4.35;;;17.70;99.90;;;;;;4975650;28;20046;-64
2022/04/22 13:43:30;;;;;;;6.05;3.13;;;17.60;99.90;;;;;;4992713;28;20042;-64
2022/04/22 13:54:10;;;;;;;10.63;5.20;;;17.50;99.90;;;;;;5008036;28;20137;-63
2022/04/22 13:56:36;;;;;;;7.03;4.65;;;17.40;99.90;;;;;;5010915;28;20112;-64
2022/04/22 13:59:01;;;;;;;11.70;5.32;;;17.50;99.90;;;;;;5000594;28;20473;-63
2022/04/22 14:01:27;;;;;;;8.60;4.68;;;17.80;99.90;;;;;;5002188;28;20041;-64
2022/04/22 14:03:52;;;;;;;8.05;5.40;;;18.10;99.90;;;;;;5010547;28;20087;-63
2022/04/22 14:06:18;;;;;;;12.48;5.15;;;17.80;99.90;;;;;;4972256;28;20093;-64
2022/04/22 14:08:43;;;;;;;8.45;4.63;;;17.80;99.90;;;;;;4957650;28;20416;-64
2022/04/22 14:11:09;;;;;;;6.95;5.22;;;17.70;99.90;;;;;;4972049;28;20194;-64
2022/04/22 14:13:35;;;;;;;16.35;5.97;;;17.70;99.90;;;;;;4972483;28;20052;-63
2022/04/22 14:16:01;;;;;;;10.70;5.40;;;17.70;99.90;;;;;;4962309;28;20456;-64
2022/04/22 14:18:31;;;;;;;9.15;5.28;;;17.50;99.90;;;;;;4981849;28;20042;-64
2022/04/22 14:21:00;;;;;;;9.65;4.85;;;17.50;99.90;;;;;;4982850;28;20038;-63